Time;durP1;ratioP1;P1;durP2;ratioP2;P2;SDS_P1;SDS_P2;PMS_P1;PMS_P2;Temp;Humidity;BMP_temperature;BMP_pressure;BME280_temperature;BME280_humidity;BME280_pressure;Samples;Min_cycle;Max_cycle;Signal;HPM_P1;HPM_P2
2022/04/03 00:00:00;;;;;;;5.87;5.10;;;0.80;1.00;;;;;;5023292;28;20491;-66
2022/04/03 00:02:29;;;;;;;6.43;5.37;;;0.80;1.00;;;;;;5020416;28;20463;-66
2022/04/03 00:04:56;;;;;;;9.90;5.10;;;0.80;1.00;;;;;;5020831;28;20740;-66
2022/04/03 00:07:31;;;;;;;8.50;5.77;;;0.80;1.00;;;;;;5020636;28;20521;-66
2022/04/03 00:09:58;;;;;;;6.87;5.00;;;0.80;1.00;;;;;;5030632;28;20497;-67
2022/04/03 00:12:28;;;;;;;8.63;6.13;;;0.80;1.00;;;;;;5040065;28;20470;-67
2022/04/03 00:14:55;;;;;;;8.30;5.93;;;0.80;1.00;;;;;;5039622;28;20495;-67
2022/04/03 00:17:27;;;;;;;8.43;5.90;;;0.80;1.00;;;;;;5039942;28;20497;-67
2022/04/03 00:22:42;;;;;;;5.70;5.07;;;0.80;13.30;;;;;;5016686;28;20889;-67
2022/04/03 00:25:22;;;;;;;6.90;5.37;;;0.80;24.10;;;;;;5020360;28;20977;-67
2022/04/03 00:27:51;;;;;;;8.53;4.87;;;0.80;20.70;;;;;;5019950;28;20520;-67
2022/04/03 00:30:18;;;;;;;5.70;5.17;;;0.80;12.70;;;;;;5027433;28;20465;-67
2022/04/03 00:32:48;;;;;;;7.00;5.60;;;0.80;8.10;;;;;;5040222;28;20459;-67
2022/04/03 00:35:20;;;;;;;5.87;4.70;;;0.80;1.00;;;;;;5039814;28;20895;-67
2022/04/03 00:37:48;;;;;;;15.57;11.50;;;0.80;1.00;;;;;;5039585;28;20492;-67
2022/04/03 00:40:33;;;;;;;22.73;13.20;;;0.90;1.00;;;;;;5036368;28;20467;-67
2022/04/03 00:43:00;;;;;;;25.57;15.97;;;0.80;1.00;;;;;;5020355;28;20470;-67
2022/04/03 00:45:27;;;;;;;92.10;48.60;;;0.90;8.70;;;;;;5019272;28;20464;-67
2022/04/03 00:47:57;;;;;;;54.23;34.30;;;0.80;5.30;;;;;;5019047;28;20521;-67
2022/04/03 00:50:24;;;;;;;41.37;27.80;;;0.80;7.40;;;;;;5019478;28;20463;-67
2022/04/03 00:53:01;;;;;;;26.20;16.67;;;0.90;7.40;;;;;;5031850;28;20462;-67
2022/04/03 00:55:32;;;;;;;18.33;13.07;;;1.00;13.10;;;;;;5038930;28;20463;-67
2022/04/03 00:57:59;;;;;;;7.20;6.27;;;0.90;26.10;;;;;;5038422;28;20936;-67
2022/04/03 01:00:30;;;;;;;8.20;6.03;;;0.90;38.20;;;;;;5039389;28;20463;-67
2022/04/03 01:03:00;;;;;;;9.47;6.57;;;0.80;91.20;;;;;;5020873;28;20460;-67
2022/04/03 01:05:29;;;;;;;6.90;5.23;;;0.80;99.90;;;;;;5019388;28;20505;-67
2022/04/03 01:07:56;;;;;;;11.90;6.20;;;0.70;99.90;;;;;;5019188;28;20459;-67
2022/04/03 01:10:23;;;;;;;8.97;6.03;;;0.70;99.90;;;;;;5018721;28;20491;-68
2022/04/03 01:12:53;;;;;;;7.07;5.33;;;0.70;99.90;;;;;;5031408;28;20459;-67
2022/04/03 01:15:23;;;;;;;11.20;5.07;;;0.70;99.90;;;;;;5038771;28;20470;-67
2022/04/03 01:17:52;;;;;;;6.43;4.40;;;0.70;95.90;;;;;;5038501;28;20920;-66
2022/04/03 01:20:20;;;;;;;5.13;4.33;;;0.70;81.50;;;;;;5039282;28;20560;-66
2022/04/03 01:22:52;;;;;;;7.20;5.13;;;0.70;44.90;;;;;;5029995;28;20553;-67
2022/04/03 01:25:23;;;;;;;8.20;4.90;;;0.70;35.00;;;;;;5018588;28;20468;-67
2022/04/03 01:27:52;;;;;;;5.87;4.37;;;0.70;9.80;;;;;;5019006;28;20471;-66
2022/04/03 01:30:22;;;;;;;6.40;4.90;;;0.70;1.00;;;;;;5019846;28;20498;-66
2022/04/03 01:32:49;;;;;;;6.20;5.17;;;0.70;1.00;;;;;;5019335;28;20951;-67
2022/04/03 01:35:19;;;;;;;6.00;4.13;;;0.70;1.00;;;;;;5018232;28;20534;-67
2022/04/03 01:37:46;;;;;;;6.40;4.13;;;0.70;1.00;;;;;;5018785;28;20471;-66
2022/04/03 01:40:20;;;;;;;7.07;4.87;;;0.80;1.00;;;;;;5029105;28;20856;-66
2022/04/03 01:42:48;;;;;;;6.70;5.50;;;0.80;1.00;;;;;;5039293;28;20551;-67
2022/04/03 01:45:20;;;;;;;5.50;4.73;;;0.80;1.00;;;;;;5038244;28;20462;-67
2022/04/03 01:47:49;;;;;;;6.10;4.47;;;0.80;1.00;;;;;;5038424;28;20795;-66
2022/04/03 01:50:16;;;;;;;6.60;5.10;;;0.80;1.00;;;;;;5029578;28;20990;-66
2022/04/03 01:52:49;;;;;;;6.90;4.90;;;0.80;1.00;;;;;;5018940;28;20547;-66
2022/04/03 01:55:24;;;;;;;6.83;4.53;;;0.80;1.00;;;;;;5018091;28;20487;-66
2022/04/03 01:57:51;;;;;;;6.37;4.90;;;0.80;1.00;;;;;;5017757;28;20463;-66
2022/04/03 02:00:21;;;;;;;6.33;4.70;;;0.80;1.00;;;;;;5022404;28;20549;-66
2022/04/03 02:02:55;;;;;;;6.23;5.40;;;0.70;1.00;;;;;;5038383;28;20517;-66
2022/04/03 02:05:25;;;;;;;5.90;5.30;;;0.70;1.00;;;;;;5038051;28;20485;-66
2022/04/03 02:07:55;;;;;;;7.30;5.70;;;0.70;1.00;;;;;;5038047;28;20482;-65
2022/04/03 02:10:24;;;;;;;11.70;5.23;;;0.70;1.00;;;;;;5036108;28;20483;-65
2022/04/03 02:12:50;;;;;;;5.80;4.73;;;0.70;1.00;;;;;;5018494;28;20471;-65
2022/04/03 02:15:20;;;;;;;6.93;4.67;;;0.70;1.00;;;;;;5029587;28;20522;-65
2022/04/03 02:17:46;;;;;;;6.10;4.83;;;0.60;1.00;;;;;;5037687;28;20469;-65
2022/04/03 02:20:14;;;;;;;9.77;5.40;;;0.60;1.00;;;;;;5037504;28;20470;-65
2022/04/03 02:22:40;;;;;;;6.10;4.97;;;0.70;1.00;;;;;;5038152;28;20862;-65
2022/04/03 02:25:11;;;;;;;6.60;4.97;;;0.70;1.00;;;;;;5030790;28;20515;-65
2022/04/03 02:27:45;;;;;;;5.73;5.13;;;0.70;1.00;;;;;;5018113;28;20904;-65
2022/04/03 02:30:17;;;;;;;4.60;4.13;;;0.70;1.00;;;;;;5018074;28;20498;-65
2022/04/03 02:32:46;;;;;;;5.80;4.30;;;0.60;1.00;;;;;;5018180;28;20974;-65
2022/04/03 02:35:14;;;;;;;9.03;4.63;;;0.60;1.00;;;;;;5020947;28;20490;-65
2022/04/03 02:37:42;;;;;;;7.63;5.13;;;0.70;1.00;;;;;;5037170;28;20470;-64
2022/04/03 02:40:14;;;;;;;8.73;5.40;;;0.60;1.00;;;;;;5037118;28;20462;-64
2022/04/03 02:42:52;;;;;;;9.60;5.93;;;0.60;1.00;;;;;;5037910;28;20900;-64
2022/04/03 02:45:21;;;;;;;6.37;5.10;;;0.50;1.00;;;;;;5036008;28;20502;-64
2022/04/03 02:47:58;;;;;;;7.13;5.40;;;0.40;1.00;;;;;;5017733;28;20467;-64
2022/04/03 02:50:31;;;;;;;6.10;5.50;;;0.50;16.60;;;;;;5024292;28;20467;-64
2022/04/03 02:52:58;;;;;;;7.57;5.33;;;0.50;21.00;;;;;;5024225;28;20518;-64
2022/04/03 02:55:26;;;;;;;5.87;4.90;;;0.50;19.60;;;;;;5018438;28;20601;-64
2022/04/03 02:57:57;;;;;;;5.70;5.10;;;0.50;21.70;;;;;;5037099;28;20458;-64
2022/04/03 03:00:32;;;;;;;5.60;4.83;;;0.50;32.70;;;;;;5037061;28;20540;-64
2022/04/03 03:03:07;;;;;;;7.10;5.53;;;0.50;49.60;;;;;;5037392;28;20560;-64
2022/04/03 03:05:34;;;;;;;7.90;5.00;;;0.50;47.70;;;;;;5036709;28;20511;-63
2022/04/03 03:08:08;;;;;;;8.87;5.90;;;0.40;66.40;;;;;;5017524;28;20935;-64
2022/04/03 03:10:35;;;;;;;9.13;5.50;;;0.40;96.40;;;;;;5021839;28;20486;-64
2022/04/03 03:13:03;;;;;;;6.40;5.60;;;0.50;99.90;;;;;;5037543;28;20509;-64
2022/04/03 03:15:31;;;;;;;6.63;5.17;;;0.50;99.90;;;;;;5036858;28;20564;-64
2022/04/03 03:18:06;;;;;;;5.80;5.20;;;0.50;99.90;;;;;;5020957;28;20472;-64
2022/04/03 03:20:39;;;;;;;9.60;5.20;;;0.40;99.90;;;;;;5016763;28;20475;-64
2022/04/03 03:23:07;;;;;;;8.80;6.10;;;0.40;99.90;;;;;;5016255;28;20472;-64
2022/04/03 03:25:37;;;;;;;6.50;5.20;;;0.30;99.90;;;;;;5017434;28;20489;-64
2022/04/03 03:28:07;;;;;;;6.27;4.93;;;0.30;99.90;;;;;;5028898;28;20831;-64
2022/04/03 03:30:36;;;;;;;5.33;4.37;;;0.20;99.90;;;;;;5036989;28;20473;-64
2022/04/03 03:33:03;;;;;;;9.00;5.97;;;0.20;99.90;;;;;;5036496;28;20474;-64
2022/04/03 03:35:36;;;;;;;7.40;5.50;;;0.30;99.90;;;;;;5036330;28;20551;-64
2022/04/03 03:38:03;;;;;;;6.70;5.37;;;0.30;99.90;;;;;;5035090;28;20496;-64
2022/04/03 03:40:38;;;;;;;5.40;4.90;;;0.20;99.90;;;;;;5036924;28;20887;-64
2022/04/03 03:43:26;;;;;;;6.20;5.27;;;0.30;99.90;;;;;;5036582;28;20520;-64
2022/04/03 03:45:57;;;;;;;7.93;5.23;;;0.30;99.90;;;;;;5037011;28;20467;-64
2022/04/03 03:48:24;;;;;;;7.00;5.80;;;0.10;99.90;;;;;;5028752;28;20493;-64
2022/04/03 03:50:53;;;;;;;7.40;5.70;;;0.10;99.90;;;;;;5017218;28;20521;-64
2022/04/03 03:53:22;;;;;;;7.70;5.53;;;0.20;99.90;;;;;;5016404;28;20471;-64
2022/04/03 03:55:49;;;;;;;6.77;5.70;;;0.20;99.90;;;;;;5016516;28;20514;-64
2022/04/03 03:58:18;;;;;;;6.07;4.90;;;0.10;99.90;;;;;;5019829;28;20917;-64
2022/04/03 04:00:48;;;;;;;10.17;5.93;;;0.10;1.00;;;;;;5040340;28;20801;-64
2022/04/03 04:03:20;;;;;;;6.40;5.53;;;0.10;1.00;;;;;;5040304;28;20537;-64
2022/04/03 04:05:51;;;;;;;6.93;5.93;;;0.10;1.00;;;;;;5040482;28;20528;-64
2022/04/03 04:08:19;;;;;;;6.97;6.27;;;0.10;1.00;;;;;;5040132;28;20478;-64
2022/04/03 04:10:49;;;;;;;6.73;6.00;;;0.10;1.00;;;;;;5039540;28;20490;-64
2022/04/03 04:13:20;;;;;;;6.80;6.10;;;0.10;1.00;;;;;;5040162;28;20467;-64
2022/04/03 04:15:47;;;;;;;6.73;5.67;;;0.10;1.00;;;;;;5039971;28;21019;-64
2022/04/03 04:18:20;;;;;;;7.67;6.67;;;0.10;1.00;;;;;;5040243;28;20501;-64
2022/04/03 04:20:52;;;;;;;9.00;6.43;;;0.10;1.00;;;;;;5024257;28;20554;-64
2022/04/03 04:23:21;;;;;;;7.17;5.80;;;0.10;85.70;;;;;;5020160;28;20499;-64
2022/04/03 04:25:49;;;;;;;7.67;6.87;;;0.00;99.90;;;;;;5020118;28;20462;-64
2022/04/03 04:28:19;;;;;;;8.97;6.30;;;-0.10;99.90;;;;;;5020281;28;20885;-64
2022/04/03 04:30:46;;;;;;;8.10;6.77;;;-0.10;99.90;;;;;;5024284;28;20513;-64
2022/04/03 04:33:16;;;;;;;8.57;6.17;;;-0.20;99.90;;;;;;5021130;28;20463;-64
2022/04/03 04:35:45;;;;;;;7.43;6.40;;;-0.30;99.90;;;;;;5019817;28;20564;-63
2022/04/03 04:38:12;;;;;;;7.60;6.10;;;-0.30;99.90;;;;;;5020210;28;20468;-64
2022/04/03 04:40:43;;;;;;;8.10;6.47;;;-0.30;99.90;;;;;;5035442;28;20500;-63
2022/04/03 04:43:10;;;;;;;7.73;6.27;;;-0.40;99.90;;;;;;5038945;28;20556;-63
2022/04/03 04:45:39;;;;;;;11.03;6.97;;;-0.40;1.00;;;;;;5019762;28;20470;-63
2022/04/03 04:48:09;;;;;;;8.63;7.03;;;-0.50;99.90;;;;;;5019816;28;20851;-63
2022/04/03 04:50:45;;;;;;;8.00;6.20;;;-0.50;1.00;;;;;;5031203;28;20514;-63
2022/04/03 04:53:15;;;;;;;7.70;6.87;;;-0.50;1.00;;;;;;5024548;28;20508;-63
2022/04/03 04:55:42;;;;;;;8.13;6.80;;;-0.50;1.00;;;;;;5019108;28;20505;-63
2022/04/03 04:58:10;;;;;;;9.23;7.23;;;-0.50;1.00;;;;;;5019504;28;20506;-63
2022/04/03 05:00:38;;;;;;;7.93;6.60;;;-0.50;1.00;;;;;;5026797;28;20468;-63
2022/04/03 05:03:08;;;;;;;9.27;6.90;;;-0.50;99.90;;;;;;5039873;28;20468;-63
2022/04/03 05:05:37;;;;;;;8.07;7.27;;;-0.60;1.00;;;;;;5038541;28;20477;-62
2022/04/03 05:08:05;;;;;;;7.53;6.70;;;-0.50;1.00;;;;;;5039313;28;20900;-62
2022/04/03 05:10:35;;;;;;;8.33;7.33;;;-0.50;1.00;;;;;;5036788;28;20493;-62
2022/04/03 05:13:02;;;;;;;8.43;6.73;;;-0.70;1.00;;;;;;5039390;28;20476;-62
2022/04/03 05:15:35;;;;;;;8.10;6.70;;;-0.80;99.90;;;;;;5037244;28;20499;-62
2022/04/03 05:18:05;;;;;;;9.20;5.80;;;-0.80;99.90;;;;;;5038990;28;20469;-62
2022/04/03 05:20:33;;;;;;;7.50;6.07;;;-0.80;1.00;;;;;;5038884;28;20566;-62
2022/04/03 05:23:00;;;;;;;10.33;7.00;;;-0.90;10.50;;;;;;5018958;28;20473;-62
2022/04/03 05:25:30;;;;;;;11.93;7.50;;;-0.90;99.90;;;;;;5019126;28;20466;-62
2022/04/03 05:27:57;;;;;;;9.27;6.87;;;-0.80;99.90;;;;;;5018640;28;20474;-62
2022/04/03 05:30:26;;;;;;;7.50;6.53;;;-0.80;99.90;;;;;;5019112;28;20501;-62
2022/04/03 05:32:58;;;;;;;8.53;6.67;;;-0.70;30.60;;;;;;5034234;28;20486;-62
2022/04/03 05:35:26;;;;;;;7.47;6.67;;;-0.80;99.90;;;;;;5038355;28;20912;-62
2022/04/03 05:37:56;;;;;;;8.40;6.20;;;-0.80;1.00;;;;;;5038772;28;20466;-62
2022/04/03 05:40:23;;;;;;;7.10;6.17;;;-0.70;1.00;;;;;;5038714;28;20546;-62
2022/04/03 05:42:50;;;;;;;9.67;6.93;;;-0.80;99.90;;;;;;5026757;28;20516;-62
2022/04/03 05:45:18;;;;;;;10.97;9.30;;;-0.70;99.90;;;;;;5017011;28;20460;-62
2022/04/03 05:47:47;;;;;;;11.80;8.50;;;-0.70;99.90;;;;;;5031597;28;20476;-62
2022/04/03 05:50:15;;;;;;;9.03;7.60;;;-0.70;99.90;;;;;;5034852;28;20458;-62
2022/04/03 05:52:47;;;;;;;9.33;7.90;;;-0.70;99.90;;;;;;5026806;28;20461;-61
2022/04/03 05:55:17;;;;;;;8.00;7.20;;;-0.70;99.90;;;;;;5037002;28;20591;-61
2022/04/03 05:57:50;;;;;;;8.33;7.30;;;-0.80;1.00;;;;;;5036119;28;20511;-61
2022/04/03 06:00:19;;;;;;;8.17;7.30;;;-0.70;30.60;;;;;;5037494;28;20468;-61
2022/04/03 06:02:49;;;;;;;9.50;7.00;;;-0.70;99.90;;;;;;5034280;28;20817;-62
2022/04/03 06:05:24;;;;;;;12.23;6.80;;;-0.70;98.10;;;;;;5017321;28;20466;-61
2022/04/03 06:07:57;;;;;;;9.70;7.00;;;-0.70;1.00;;;;;;5017507;28;20463;-61
2022/04/03 06:10:34;;;;;;;11.57;8.60;;;-0.60;1.00;;;;;;5017013;28;20465;-62
2022/04/03 06:13:08;;;;;;;9.83;8.77;;;-0.60;1.00;;;;;;5018868;28;20987;-62
2022/04/03 06:15:37;;;;;;;15.03;10.93;;;-0.60;99.90;;;;;;5036169;28;20499;-61
2022/04/03 06:18:08;;;;;;;34.30;20.50;;;-0.50;99.90;;;;;;5037629;28;20467;-61
2022/04/03 06:20:37;;;;;;;27.20;16.00;;;-0.40;99.90;;;;;;5038010;28;20817;-62
2022/04/03 06:23:13;;;;;;;21.90;12.90;;;-0.10;99.90;;;;;;5037709;28;20502;-62
2022/04/03 06:25:43;;;;;;;21.77;12.97;;;0.20;99.90;;;;;;5026224;28;20500;-62
2022/04/03 06:28:11;;;;;;;26.10;15.60;;;0.60;99.90;;;;;;5018315;28;20464;-62
2022/04/03 06:30:38;;;;;;;17.97;11.90;;;0.90;1.00;;;;;;5017583;28;20464;-63
2022/04/03 06:33:08;;;;;;;14.17;10.20;;;1.10;99.90;;;;;;5018207;28;20466;-64
2022/04/03 06:35:41;;;;;;;9.37;6.80;;;1.20;99.90;;;;;;5022200;28;20563;-64
2022/04/03 06:38:13;;;;;;;9.40;6.90;;;1.40;99.90;;;;;;5037611;28;20517;-66
2022/04/03 06:40:49;;;;;;;9.73;7.33;;;1.80;99.90;;;;;;5037191;28;20467;-68
2022/04/03 06:43:21;;;;;;;9.13;7.27;;;2.00;99.90;;;;;;5037008;28;20472;-71
2022/04/03 06:45:57;;;;;;;9.27;7.00;;;2.00;46.60;;;;;;5035506;28;20459;-72
2022/04/03 06:48:25;;;;;;;7.93;5.90;;;2.00;1.00;;;;;;5026268;28;20518;-72
2022/04/03 06:50:52;;;;;;;6.70;5.97;;;2.20;1.00;;;;;;5027329;28;20468;-66
2022/04/03 06:53:23;;;;;;;6.17;5.43;;;2.40;1.00;;;;;;5033112;28;20468;-66
2022/04/03 06:55:50;;;;;;;10.90;6.67;;;2.50;1.00;;;;;;5026960;28;20499;-66
2022/04/03 06:58:20;;;;;;;8.13;5.80;;;2.70;1.00;;;;;;5036526;28;20476;-66
2022/04/03 07:00:49;;;;;;;7.50;6.10;;;3.00;1.00;;;;;;5035722;28;20900;-68
2022/04/03 07:03:24;;;;;;;8.07;7.27;;;2.70;1.00;;;;;;5036591;28;20517;-68
2022/04/03 07:05:59;;;;;;;6.90;5.93;;;2.30;1.00;;;;;;5017347;28;20520;-69
2022/04/03 07:08:30;;;;;;;8.23;6.10;;;2.30;1.00;;;;;;5034130;28;20953;-69
2022/04/03 07:11:00;;;;;;;7.40;6.03;;;2.70;1.00;;;;;;5038293;28;20502;-69
2022/04/03 07:13:29;;;;;;;9.30;6.03;;;2.50;1.00;;;;;;5038945;28;20494;-68
2022/04/03 07:15:56;;;;;;;9.00;6.60;;;2.50;1.00;;;;;;5039125;28;20931;-68
2022/04/03 07:18:23;;;;;;;7.10;6.40;;;2.90;1.00;;;;;;5025874;28;20476;-68
2022/04/03 07:20:50;;;;;;;7.57;5.50;;;3.30;1.00;;;;;;5021705;28;20467;-67
2022/04/03 07:23:25;;;;;;;8.67;6.57;;;3.90;1.00;;;;;;5033737;28;20754;-67
2022/04/03 07:26:00;;;;;;;7.67;6.03;;;3.90;1.00;;;;;;5036234;28;20473;-67
2022/04/03 07:28:28;;;;;;;12.07;6.13;;;4.30;1.00;;;;;;5024230;28;20464;-67
2022/04/03 07:30:55;;;;;;;8.43;5.50;;;4.30;1.00;;;;;;5017381;28;20456;-67
2022/04/03 07:33:25;;;;;;;7.03;5.43;;;4.60;1.00;;;;;;5032574;28;20485;-66
2022/04/03 07:35:55;;;;;;;10.17;6.30;;;4.80;1.00;;;;;;5040232;28;20526;-66
2022/04/03 07:38:22;;;;;;;5.87;5.20;;;5.20;1.00;;;;;;5033787;28;20464;-66
2022/04/03 07:40:49;;;;;;;10.87;5.83;;;5.00;1.00;;;;;;5021513;28;20797;-66
2022/04/03 07:43:28;;;;;;;8.30;5.00;;;5.30;1.00;;;;;;5021449;28;20852;-66
2022/04/03 07:45:57;;;;;;;8.03;5.90;;;5.50;1.00;;;;;;5021389;28;20570;-63
2022/04/03 07:48:25;;;;;;;5.83;5.03;;;5.60;1.00;;;;;;5024133;28;20525;-65
2022/04/03 07:50:52;;;;;;;6.20;5.27;;;5.60;1.00;;;;;;5032232;28;20456;-65
2022/04/03 07:53:19;;;;;;;7.93;5.23;;;5.50;1.00;;;;;;5027564;28;20918;-65
2022/04/03 07:55:51;;;;;;;5.47;4.50;;;5.50;1.00;;;;;;5031634;28;20487;-63
2022/04/03 07:58:20;;;;;;;5.60;4.37;;;6.00;1.00;;;;;;5028126;28;20490;-65
2022/04/03 08:00:48;;;;;;;4.80;4.00;;;6.00;1.00;;;;;;5029942;28;20460;-65
2022/04/03 08:03:18;;;;;;;4.33;3.80;;;6.00;1.00;;;;;;5029947;28;20808;-65
2022/04/03 08:05:45;;;;;;;8.70;4.23;;;6.30;1.00;;;;;;5029220;28;20458;-65
2022/04/03 08:08:15;;;;;;;4.93;3.83;;;5.10;99.90;;;;;;5030551;28;20459;-65
2022/04/03 08:10:42;;;;;;;4.30;3.70;;;4.80;99.90;;;;;;5028781;28;20560;-65
2022/04/03 08:13:09;;;;;;;4.80;3.90;;;4.60;1.00;;;;;;5030556;28;20893;-65
2022/04/03 08:15:39;;;;;;;4.30;3.57;;;4.40;1.00;;;;;;5029100;28;20466;-65
2022/04/03 08:18:06;;;;;;;6.63;3.90;;;4.40;1.00;;;;;;5025085;28;20517;-65
2022/04/03 08:20:38;;;;;;;4.83;3.70;;;4.60;1.00;;;;;;5026266;28;20854;-65
2022/04/03 08:23:10;;;;;;;6.83;3.73;;;4.60;1.00;;;;;;5037444;28;20880;-65
2022/04/03 08:25:39;;;;;;;4.27;3.87;;;5.00;99.90;;;;;;5023286;28;20489;-65
2022/04/03 08:28:08;;;;;;;4.40;3.97;;;4.80;99.90;;;;;;5019798;28;20485;-65
2022/04/03 08:30:42;;;;;;;6.27;4.10;;;5.20;1.00;;;;;;5020260;28;20504;-65
2022/04/03 08:33:10;;;;;;;4.93;4.53;;;5.70;1.00;;;;;;5020467;28;20467;-62
2022/04/03 08:35:40;;;;;;;5.63;3.90;;;5.20;99.90;;;;;;5019969;28;20472;-64
2022/04/03 08:38:10;;;;;;;7.40;4.07;;;5.60;99.90;;;;;;5019851;28;20510;-65
2022/04/03 08:40:39;;;;;;;4.70;3.77;;;5.70;99.90;;;;;;5021311;28;20525;-65
2022/04/03 08:43:06;;;;;;;3.90;3.10;;;6.20;99.90;;;;;;5038996;28;20549;-64
2022/04/03 08:45:33;;;;;;;6.13;3.70;;;5.80;99.90;;;;;;5039007;28;20463;-63
2022/04/03 08:48:03;;;;;;;3.63;3.17;;;5.60;99.90;;;;;;5039518;28;20561;-63
2022/04/03 08:50:32;;;;;;;4.93;3.40;;;5.70;99.90;;;;;;5032588;28;20885;-63
2022/04/03 08:53:03;;;;;;;4.63;3.60;;;5.90;99.90;;;;;;5019251;28;20770;-62
2022/04/03 08:55:32;;;;;;;4.43;3.60;;;5.30;99.90;;;;;;5018821;28;20491;-63
2022/04/03 08:58:02;;;;;;;3.90;3.50;;;5.20;99.90;;;;;;5018880;28;20994;-62
2022/04/03 09:00:36;;;;;;;4.87;3.63;;;5.50;99.90;;;;;;5019736;28;20477;-62
2022/04/03 09:03:04;;;;;;;4.90;4.13;;;6.40;99.90;;;;;;5033156;28;20491;-63
2022/04/03 09:05:40;;;;;;;4.67;3.33;;;6.50;99.90;;;;;;5038814;28;20533;-60
2022/04/03 09:08:09;;;;;;;5.23;3.57;;;6.20;99.90;;;;;;5039077;28;20756;-59
2022/04/03 09:10:39;;;;;;;5.17;3.83;;;6.50;99.90;;;;;;5038341;28;20577;-61
2022/04/03 09:13:27;;;;;;;3.33;3.00;;;6.60;99.90;;;;;;5027712;28;20821;-61
2022/04/03 09:15:57;;;;;;;5.30;3.80;;;6.80;99.90;;;;;;5018523;28;20530;-61
2022/04/03 09:18:45;;;;;;;3.80;3.50;;;8.00;99.90;;;;;;5036553;28;20463;-62
2022/04/03 09:21:21;;;;;;;5.20;3.53;;;8.40;99.90;;;;;;5037186;28;20466;-62
2022/04/03 09:24:00;;;;;;;4.20;3.13;;;8.70;99.90;;;;;;5024522;28;20445;-62
2022/04/03 09:26:27;;;;;;;4.20;3.80;;;9.10;99.90;;;;;;5018111;28;20459;-62
2022/04/03 09:29:07;;;;;;;3.53;3.23;;;8.80;99.90;;;;;;5018426;28;20511;-62
2022/04/03 09:34:26;;;;;;;5.53;3.83;;;8.30;99.90;;;;;;5021564;28;20466;-62
2022/04/03 09:37:00;;;;;;;6.60;3.50;;;8.00;99.90;;;;;;5036822;28;20994;-62
2022/04/03 09:39:28;;;;;;;4.90;4.40;;;6.80;99.90;;;;;;5018552;28;20464;-62
2022/04/03 09:42:01;;;;;;;4.30;3.90;;;6.60;99.90;;;;;;5017349;28;20828;-62
2022/04/03 09:44:31;;;;;;;4.70;4.27;;;6.30;99.90;;;;;;5021359;28;20757;-62
2022/04/03 09:47:15;;;;;;;6.73;5.20;;;6.30;99.90;;;;;;5027765;28;20873;-62
2022/04/03 09:49:45;;;;;;;4.57;4.03;;;6.40;99.90;;;;;;5026546;28;20470;-62
2022/04/03 09:52:12;;;;;;;6.70;3.40;;;6.30;99.90;;;;;;5025240;28;20555;-61
2022/04/03 09:54:50;;;;;;;4.57;3.93;;;6.10;99.90;;;;;;5015682;28;20456;-60
2022/04/03 09:57:29;;;;;;;5.93;4.33;;;5.90;99.90;;;;;;5032990;28;20490;-61
2022/04/03 09:59:59;;;;;;;5.57;3.90;;;5.70;99.90;;;;;;5028184;28;20463;-62
2022/04/03 10:02:26;;;;;;;3.57;3.27;;;5.60;99.90;;;;;;5025093;28;20888;-62
2022/04/03 10:04:55;;;;;;;3.57;3.27;;;6.10;99.90;;;;;;5024842;28;20494;-62
2022/04/03 10:07:25;;;;;;;4.63;3.90;;;6.20;99.90;;;;;;5024126;28;20455;-60
2022/04/03 10:09:55;;;;;;;3.83;3.17;;;6.40;99.90;;;;;;5019267;28;20472;-61
2022/04/03 10:12:34;;;;;;;6.73;3.83;;;6.00;99.90;;;;;;5028571;28;20498;-61
2022/04/03 10:15:08;;;;;;;4.53;3.57;;;6.00;99.90;;;;;;5024202;28;20464;-61
2022/04/03 10:17:35;;;;;;;19.27;14.60;;;6.70;99.90;;;;;;5027144;28;20940;-60
2022/04/03 10:20:09;;;;;;;24.53;18.60;;;6.50;99.90;;;;;;5024505;28;20459;-60
2022/04/03 10:22:40;;;;;;;16.77;14.97;;;6.00;99.90;;;;;;5026226;28;20459;-61
2022/04/03 10:25:14;;;;;;;5.30;4.80;;;5.70;99.90;;;;;;5023684;28;20552;-61
2022/04/03 10:27:54;;;;;;;4.57;3.40;;;5.60;99.90;;;;;;5026517;28;20510;-61
2022/04/03 10:30:38;;;;;;;4.67;3.60;;;6.10;99.90;;;;;;5024158;28;20460;-61
2022/04/03 10:33:17;;;;;;;4.00;3.70;;;6.70;99.90;;;;;;5024277;28;20963;-61
2022/04/03 10:35:48;;;;;;;4.33;4.00;;;6.60;99.90;;;;;;5022879;28;20456;-62
2022/04/03 10:38:24;;;;;;;5.80;5.30;;;6.10;99.90;;;;;;5024362;28;20707;-61
2022/04/03 10:41:00;;;;;;;6.67;3.20;;;5.90;99.90;;;;;;5025368;28;20988;-61
2022/04/03 10:43:39;;;;;;;4.20;2.93;;;5.70;99.90;;;;;;5024593;28;20489;-61
2022/04/03 10:46:13;;;;;;;5.43;3.70;;;5.40;99.90;;;;;;5031282;28;20541;-61
2022/04/03 10:48:40;;;;;;;4.20;2.90;;;5.20;99.90;;;;;;5035132;28;20762;-61
2022/04/03 10:51:13;;;;;;;3.40;3.10;;;5.20;99.90;;;;;;5024032;28;20525;-62
2022/04/03 10:53:49;;;;;;;3.90;2.83;;;5.40;99.90;;;;;;5020440;28;20922;-61
2022/04/03 10:56:26;;;;;;;3.97;3.27;;;5.20;99.90;;;;;;5020232;28;20466;-61
2022/04/03 10:58:58;;;;;;;5.33;3.70;;;5.00;99.90;;;;;;5025592;28;20463;-61
2022/04/03 11:01:28;;;;;;;5.13;3.83;;;5.10;99.90;;;;;;5030301;28;20477;-61
2022/04/03 11:04:08;;;;;;;3.73;3.43;;;5.30;99.90;;;;;;5029417;28;20491;-60
2022/04/03 11:06:48;;;;;;;6.80;3.60;;;5.30;99.90;;;;;;5021850;28;20537;-61
2022/04/03 11:09:43;;;;;;;7.03;3.40;;;5.60;99.90;;;;;;5029214;28;21029;-60
2022/04/03 11:12:18;;;;;;;9.33;3.80;;;6.10;99.90;;;;;;5020213;28;20527;-61
2022/04/03 11:15:12;;;;;;;7.70;3.73;;;6.50;99.90;;;;;;5017698;28;20470;-60
2022/04/03 11:17:53;;;;;;;5.30;4.43;;;6.40;99.90;;;;;;5023815;28;20491;-62
2022/04/03 11:20:48;;;;;;;5.63;4.23;;;7.20;99.90;;;;;;5036728;28;20528;-63
2022/04/03 11:23:28;;;;;;;4.70;4.30;;;8.20;99.90;;;;;;5036667;28;20462;-63
2022/04/03 11:25:58;;;;;;;9.70;4.63;;;9.00;99.90;;;;;;5035076;28;20463;-63
2022/04/03 11:28:29;;;;;;;8.50;4.43;;;9.40;99.90;;;;;;5018441;28;20869;-62
2022/04/03 11:30:56;;;;;;;5.93;3.77;;;9.10;99.90;;;;;;5017503;28;20559;-61
2022/04/03 11:33:23;;;;;;;4.80;4.40;;;9.90;99.90;;;;;;5019515;28;20746;-61
2022/04/03 11:36:04;;;;;;;5.60;4.80;;;10.30;99.90;;;;;;5016573;28;20540;-60
2022/04/03 11:38:39;;;;;;;7.50;4.80;;;10.20;99.90;;;;;;5014407;28;20483;-60
2022/04/03 11:41:10;;;;;;;6.23;4.03;;;11.10;99.90;;;;;;5017111;28;20516;-60
2022/04/03 11:43:37;;;;;;;4.50;3.70;;;10.70;99.90;;;;;;5029587;28;20487;-59
2022/04/03 11:46:09;;;;;;;4.57;3.90;;;9.70;99.90;;;;;;5033722;28;20519;-60
2022/04/03 11:48:42;;;;;;;4.30;3.73;;;9.70;99.90;;;;;;5027878;28;21016;-60
2022/04/03 11:51:12;;;;;;;4.07;3.67;;;10.10;99.90;;;;;;5035576;28;20483;-61
2022/04/03 11:53:44;;;;;;;6.70;4.17;;;9.40;99.90;;;;;;5016733;28;20503;-61
2022/04/03 11:56:15;;;;;;;5.00;3.23;;;9.80;99.90;;;;;;5017270;28;20761;-62
2022/04/03 11:58:45;;;;;;;3.63;3.20;;;10.60;99.90;;;;;;5031383;28;20534;-64
2022/04/03 12:01:25;;;;;;;8.40;3.20;;;10.70;99.90;;;;;;5015763;28;20485;-65
2022/04/03 12:04:05;;;;;;;5.60;3.67;;;11.70;99.90;;;;;;5016826;28;20471;-65
2022/04/03 12:06:37;;;;;;;3.23;2.93;;;12.40;99.90;;;;;;5019037;28;20468;-65
2022/04/03 12:09:09;;;;;;;5.10;3.30;;;12.30;99.90;;;;;;5022677;28;20464;-64
2022/04/03 12:11:37;;;;;;;3.87;3.20;;;12.20;99.90;;;;;;5023053;28;20836;-64
2022/04/03 12:14:22;;;;;;;4.23;3.30;;;12.10;99.90;;;;;;5024276;28;20468;-64
2022/04/03 12:16:59;;;;;;;3.30;3.00;;;11.80;99.90;;;;;;5022668;28;20500;-65
2022/04/03 12:19:28;;;;;;;4.60;3.50;;;11.80;99.90;;;;;;5025088;28;20551;-64
2022/04/03 12:21:56;;;;;;;3.30;3.00;;;12.20;99.90;;;;;;5027767;28;20475;-64
2022/04/03 12:24:27;;;;;;;4.30;3.43;;;12.20;99.90;;;;;;5028168;28;20811;-64
2022/04/03 12:26:58;;;;;;;3.23;2.77;;;11.60;99.90;;;;;;5030091;28;20516;-65
2022/04/03 12:29:29;;;;;;;3.53;3.23;;;11.50;99.90;;;;;;5026479;28;20472;-65
2022/04/03 12:32:01;;;;;;;4.37;3.97;;;10.40;99.90;;;;;;5036479;28;20493;-65
2022/04/03 12:34:48;;;;;;;4.87;2.90;;;10.50;99.90;;;;;;5039247;28;20848;-64
2022/04/03 12:37:17;;;;;;;3.33;3.03;;;10.70;99.90;;;;;;5039445;28;20920;-64
2022/04/03 12:39:46;;;;;;;4.10;3.43;;;11.00;99.90;;;;;;5027000;28;20464;-64
2022/04/03 12:42:20;;;;;;;4.10;3.70;;;11.40;99.90;;;;;;5034415;28;20926;-64
2022/04/03 12:45:09;;;;;;;3.80;3.27;;;10.30;99.90;;;;;;5038346;28;20517;-64
2022/04/03 12:47:39;;;;;;;4.80;3.70;;;10.10;99.90;;;;;;5018660;28;20505;-64
2022/04/03 12:50:20;;;;;;;5.80;3.33;;;10.10;99.90;;;;;;5023016;28;20513;-63
2022/04/03 12:52:53;;;;;;;3.17;2.80;;;10.30;99.90;;;;;;5027240;28;20460;-63
2022/04/03 12:55:41;;;;;;;3.43;3.13;;;10.20;99.90;;;;;;5023044;28;21391;-63
2022/04/03 12:58:24;;;;;;;3.83;3.33;;;10.60;99.90;;;;;;5045770;28;20490;-63
2022/04/03 13:00:57;;;;;;;6.70;4.17;;;11.50;99.90;;;;;;5026838;28;20478;-63
2022/04/03 13:03:33;;;;;;;3.87;3.57;;;11.70;99.90;;;;;;5017984;28;20843;-63
2022/04/03 13:06:05;;;;;;;3.83;3.53;;;11.50;99.90;;;;;;5032060;28;20846;-63
2022/04/03 13:08:50;;;;;;;4.43;3.47;;;10.70;99.90;;;;;;5038872;28;20513;-62
2022/04/03 13:11:37;;;;;;;3.77;3.47;;;10.90;99.90;;;;;;5027002;28;20499;-63
2022/04/03 13:14:19;;;;;;;4.30;3.90;;;10.70;99.90;;;;;;5025241;28;20474;-62
2022/04/03 13:16:47;;;;;;;4.27;3.70;;;10.10;99.90;;;;;;5029575;28;20821;-62
2022/04/03 13:19:22;;;;;;;7.90;4.43;;;9.60;99.90;;;;;;5019636;28;20987;-62
2022/04/03 13:21:55;;;;;;;4.00;3.63;;;9.30;99.90;;;;;;5023681;28;20461;-62